sensor_id;sensor_type;location;lat;lon;timestamp;P1;durP1;ratioP1;P2;durP2;ratioP2
58083;SDS011;43882;51.550;11.858;2024-01-07T00:00:03;48.80;;;18.95;;
58083;SDS011;43882;51.550;11.858;2024-01-07T00:02:29;47.88;;;18.15;;
58083;SDS011;43882;51.550;11.858;2024-01-07T00:04:58;46.72;;;17.67;;
58083;SDS011;43882;51.550;11.858;2024-01-07T00:07:24;45.38;;;16.95;;
58083;SDS011;43882;51.550;11.858;2024-01-07T00:09:50;50.90;;;18.65;;
58083;SDS011;43882;51.550;11.858;2024-01-07T00:12:16;48.13;;;17.67;;
58083;SDS011;43882;51.550;11.858;2024-01-07T00:14:42;45.10;;;17.40;;
58083;SDS011;43882;51.550;11.858;2024-01-07T00:17:09;43.13;;;16.20;;
58083;SDS011;43882;51.550;11.858;2024-01-07T00:19:36;44.72;;;18.15;;
58083;SDS011;43882;51.550;11.858;2024-01-07T00:22:03;47.88;;;16.83;;
58083;SDS011;43882;51.550;11.858;2024-01-07T00:24:29;43.78;;;16.63;;
58083;SDS011;43882;51.550;11.858;2024-01-07T00:26:55;39.00;;;15.30;;
58083;SDS011;43882;51.550;11.858;2024-01-07T00:29:21;42.92;;;15.45;;
58083;SDS011;43882;51.550;11.858;2024-01-07T00:31:47;38.35;;;14.13;;
58083;SDS011;43882;51.550;11.858;2024-01-07T00:34:13;35.50;;;14.88;;
58083;SDS011;43882;51.550;11.858;2024-01-07T00:36:39;33.72;;;13.75;;
58083;SDS011;43882;51.550;11.858;2024-01-07T00:39:06;39.95;;;15.32;;
58083;SDS011;43882;51.550;11.858;2024-01-07T00:41:32;38.20;;;14.13;;
58083;SDS011;43882;51.550;11.858;2024-01-07T00:43:58;40.85;;;17.33;;
58083;SDS011;43882;51.550;11.858;2024-01-07T00:46:24;43.22;;;15.77;;
58083;SDS011;43882;51.550;11.858;2024-01-07T00:48:50;39.20;;;15.07;;
58083;SDS011;43882;51.550;11.858;2024-01-07T00:51:16;39.92;;;14.88;;
58083;SDS011;43882;51.550;11.858;2024-01-07T00:53:42;42.13;;;15.63;;
58083;SDS011;43882;51.550;11.858;2024-01-07T00:56:09;39.60;;;15.57;;
58083;SDS011;43882;51.550;11.858;2024-01-07T00:58:36;35.63;;;14.45;;
58083;SDS011;43882;51.550;11.858;2024-01-07T01:01:02;38.55;;;13.95;;
58083;SDS011;43882;51.550;11.858;2024-01-07T01:03:28;44.30;;;16.67;;
58083;SDS011;43882;51.550;11.858;2024-01-07T01:05:54;40.67;;;16.48;;
58083;SDS011;43882;51.550;11.858;2024-01-07T01:08:20;40.42;;;15.68;;
58083;SDS011;43882;51.550;11.858;2024-01-07T01:10:48;34.42;;;14.57;;
58083;SDS011;43882;51.550;11.858;2024-01-07T01:13:14;37.60;;;15.07;;
58083;SDS011;43882;51.550;11.858;2024-01-07T01:15:40;40.25;;;15.95;;
58083;SDS011;43882;51.550;11.858;2024-01-07T01:18:06;38.40;;;14.95;;
58083;SDS011;43882;51.550;11.858;2024-01-07T01:20:32;43.50;;;15.38;;
58083;SDS011;43882;51.550;11.858;2024-01-07T01:22:58;35.63;;;14.95;;
58083;SDS011;43882;51.550;11.858;2024-01-07T01:25:24;36.88;;;14.35;;
58083;SDS011;43882;51.550;11.858;2024-01-07T01:27:52;38.67;;;15.00;;
58083;SDS011;43882;51.550;11.858;2024-01-07T01:30:18;40.88;;;15.10;;
58083;SDS011;43882;51.550;11.858;2024-01-07T01:32:44;38.30;;;14.98;;
58083;SDS011;43882;51.550;11.858;2024-01-07T01:35:10;42.60;;;16.38;;
58083;SDS011;43882;51.550;11.858;2024-01-07T01:37:36;41.63;;;16.55;;
58083;SDS011;43882;51.550;11.858;2024-01-07T01:40:03;46.03;;;17.67;;
58083;SDS011;43882;51.550;11.858;2024-01-07T01:42:29;40.90;;;15.93;;
58083;SDS011;43882;51.550;11.858;2024-01-07T01:44:55;41.40;;;16.67;;
58083;SDS011;43882;51.550;11.858;2024-01-07T01:47:24;40.58;;;16.42;;
58083;SDS011;43882;51.550;11.858;2024-01-07T01:49:50;43.13;;;16.35;;
58083;SDS011;43882;51.550;11.858;2024-01-07T01:52:16;37.03;;;15.43;;
58083;SDS011;43882;51.550;11.858;2024-01-07T01:54:43;41.70;;;15.85;;
58083;SDS011;43882;51.550;11.858;2024-01-07T01:57:09;43.00;;;17.25;;
58083;SDS011;43882;51.550;11.858;2024-01-07T01:59:41;45.08;;;16.77;;
58083;SDS011;43882;51.550;11.858;2024-01-07T02:02:08;38.78;;;16.38;;
58083;SDS011;43882;51.550;11.858;2024-01-07T02:04:34;40.80;;;14.85;;
58083;SDS011;43882;51.550;11.858;2024-01-07T02:07:00;44.35;;;14.98;;
58083;SDS011;43882;51.550;11.858;2024-01-07T02:09:27;40.95;;;16.08;;
58083;SDS011;43882;51.550;11.858;2024-01-07T02:12:03;36.38;;;14.57;;
58083;SDS011;43882;51.550;11.858;2024-01-07T02:14:30;33.92;;;13.50;;
58083;SDS011;43882;51.550;11.858;2024-01-07T02:16:56;35.83;;;13.25;;
58083;SDS011;43882;51.550;11.858;2024-01-07T02:19:22;33.33;;;13.73;;
58083;SDS011;43882;51.550;11.858;2024-01-07T02:21:51;31.65;;;12.48;;
58083;SDS011;43882;51.550;11.858;2024-01-07T02:24:17;35.70;;;12.98;;
58083;SDS011;43882;51.550;11.858;2024-01-07T02:26:43;36.50;;;13.10;;
58083;SDS011;43882;51.550;11.858;2024-01-07T02:29:09;30.23;;;11.43;;
58083;SDS011;43882;51.550;11.858;2024-01-07T02:31:35;27.63;;;11.18;;
58083;SDS011;43882;51.550;11.858;2024-01-07T02:34:02;31.40;;;10.95;;
58083;SDS011;43882;51.550;11.858;2024-01-07T02:36:28;28.05;;;12.27;;
58083;SDS011;43882;51.550;11.858;2024-01-07T02:38:54;28.08;;;10.45;;
58083;SDS011;43882;51.550;11.858;2024-01-07T02:41:20;35.05;;;12.18;;
58083;SDS011;43882;51.550;11.858;2024-01-07T02:43:50;26.42;;;10.10;;
58083;SDS011;43882;51.550;11.858;2024-01-07T02:46:16;27.40;;;10.60;;
58083;SDS011;43882;51.550;11.858;2024-01-07T02:48:42;27.83;;;10.65;;
58083;SDS011;43882;51.550;11.858;2024-01-07T02:51:08;29.92;;;11.13;;
58083;SDS011;43882;51.550;11.858;2024-01-07T02:53:34;28.27;;;10.55;;
58083;SDS011;43882;51.550;11.858;2024-01-07T02:56:00;26.70;;;9.68;;
58083;SDS011;43882;51.550;11.858;2024-01-07T02:58:26;29.13;;;10.57;;
58083;SDS011;43882;51.550;11.858;2024-01-07T03:00:52;26.25;;;9.43;;
58083;SDS011;43882;51.550;11.858;2024-01-07T03:03:18;25.77;;;9.60;;
58083;SDS011;43882;51.550;11.858;2024-01-07T03:05:44;26.88;;;8.95;;
58083;SDS011;43882;51.550;11.858;2024-01-07T03:08:11;24.45;;;9.02;;
58083;SDS011;43882;51.550;11.858;2024-01-07T03:10:37;25.92;;;9.30;;
58083;SDS011;43882;51.550;11.858;2024-01-07T03:13:03;25.17;;;10.20;;
58083;SDS011;43882;51.550;11.858;2024-01-07T03:15:30;26.70;;;9.57;;
58083;SDS011;43882;51.550;11.858;2024-01-07T03:17:57;25.88;;;9.98;;
58083;SDS011;43882;51.550;11.858;2024-01-07T03:20:23;22.50;;;8.20;;
58083;SDS011;43882;51.550;11.858;2024-01-07T03:22:49;23.58;;;7.80;;
58083;SDS011;43882;51.550;11.858;2024-01-07T03:25:15;22.02;;;7.63;;
58083;SDS011;43882;51.550;11.858;2024-01-07T03:27:41;22.30;;;7.60;;
58083;SDS011;43882;51.550;11.858;2024-01-07T03:30:07;22.83;;;7.47;;
58083;SDS011;43882;51.550;11.858;2024-01-07T03:32:34;23.58;;;7.45;;
58083;SDS011;43882;51.550;11.858;2024-01-07T03:35:01;23.08;;;7.18;;
58083;SDS011;43882;51.550;11.858;2024-01-07T03:37:28;23.55;;;8.20;;
58083;SDS011;43882;51.550;11.858;2024-01-07T03:39:54;21.02;;;7.03;;
58083;SDS011;43882;51.550;11.858;2024-01-07T03:42:20;23.58;;;7.32;;
58083;SDS011;43882;51.550;11.858;2024-01-07T03:44:46;21.95;;;7.55;;
58083;SDS011;43882;51.550;11.858;2024-01-07T03:47:12;19.75;;;6.95;;
58083;SDS011;43882;51.550;11.858;2024-01-07T03:49:38;20.52;;;6.88;;
58083;SDS011;43882;51.550;11.858;2024-01-07T03:52:05;22.92;;;7.03;;
58083;SDS011;43882;51.550;11.858;2024-01-07T03:54:31;19.30;;;5.97;;
58083;SDS011;43882;51.550;11.858;2024-01-07T03:56:57;20.88;;;6.22;;
58083;SDS011;43882;51.550;11.858;2024-01-07T03:59:24;21.08;;;6.60;;
58083;SDS011;43882;51.550;11.858;2024-01-07T04:01:50;21.08;;;6.57;;
58083;SDS011;43882;51.550;11.858;2024-01-07T04:04:18;19.00;;;6.15;;
58083;SDS011;43882;51.550;11.858;2024-01-07T04:06:44;21.05;;;6.38;;
58083;SDS011;43882;51.550;11.858;2024-01-07T04:09:10;21.23;;;6.65;;
58083;SDS011;43882;51.550;11.858;2024-01-07T04:11:40;19.17;;;5.85;;
58083;SDS011;43882;51.550;11.858;2024-01-07T04:14:07;19.70;;;5.68;;
58083;SDS011;43882;51.550;11.858;2024-01-07T04:16:33;19.63;;;6.35;;
58083;SDS011;43882;51.550;11.858;2024-01-07T04:18:59;20.00;;;6.63;;
58083;SDS011;43882;51.550;11.858;2024-01-07T04:21:25;20.48;;;6.28;;
58083;SDS011;43882;51.550;11.858;2024-01-07T04:23:51;17.88;;;5.57;;
58083;SDS011;43882;51.550;11.858;2024-01-07T04:26:17;18.05;;;6.03;;
58083;SDS011;43882;51.550;11.858;2024-01-07T04:28:43;16.50;;;4.95;;
58083;SDS011;43882;51.550;11.858;2024-01-07T04:31:10;18.58;;;5.35;;
58083;SDS011;43882;51.550;11.858;2024-01-07T04:33:36;17.88;;;5.70;;
58083;SDS011;43882;51.550;11.858;2024-01-07T04:36:02;16.30;;;4.65;;
58083;SDS011;43882;51.550;11.858;2024-01-07T04:38:31;17.92;;;5.43;;
58083;SDS011;43882;51.550;11.858;2024-01-07T04:40:57;19.40;;;5.60;;
58083;SDS011;43882;51.550;11.858;2024-01-07T04:43:23;16.48;;;5.32;;
58083;SDS011;43882;51.550;11.858;2024-01-07T04:45:49;17.52;;;5.20;;
58083;SDS011;43882;51.550;11.858;2024-01-07T04:48:15;18.20;;;5.65;;
58083;SDS011;43882;51.550;11.858;2024-01-07T04:50:41;18.65;;;5.53;;
58083;SDS011;43882;51.550;11.858;2024-01-07T04:53:08;15.68;;;4.78;;
58083;SDS011;43882;51.550;11.858;2024-01-07T04:55:34;18.33;;;5.63;;
58083;SDS011;43882;51.550;11.858;2024-01-07T04:58:00;15.35;;;4.60;;
58083;SDS011;43882;51.550;11.858;2024-01-07T05:00:27;18.58;;;4.72;;
58083;SDS011;43882;51.550;11.858;2024-01-07T05:02:53;17.23;;;4.63;;
58083;SDS011;43882;51.550;11.858;2024-01-07T05:05:19;17.27;;;4.80;;
58083;SDS011;43882;51.550;11.858;2024-01-07T05:07:45;17.60;;;5.57;;
58083;SDS011;43882;51.550;11.858;2024-01-07T05:10:11;17.25;;;5.03;;
58083;SDS011;43882;51.550;11.858;2024-01-07T05:12:37;16.83;;;4.82;;
58083;SDS011;43882;51.550;11.858;2024-01-07T05:15:03;17.98;;;4.72;;
58083;SDS011;43882;51.550;11.858;2024-01-07T05:17:31;16.95;;;5.05;;
58083;SDS011;43882;51.550;11.858;2024-01-07T05:19:57;17.25;;;4.72;;
58083;SDS011;43882;51.550;11.858;2024-01-07T05:22:23;17.65;;;4.82;;
58083;SDS011;43882;51.550;11.858;2024-01-07T05:24:49;16.40;;;5.28;;
58083;SDS011;43882;51.550;11.858;2024-01-07T05:27:15;16.63;;;5.30;;
58083;SDS011;43882;51.550;11.858;2024-01-07T05:29:44;16.83;;;4.90;;
58083;SDS011;43882;51.550;11.858;2024-01-07T05:32:12;16.40;;;4.57;;
58083;SDS011;43882;51.550;11.858;2024-01-07T05:34:38;15.10;;;4.40;;
58083;SDS011;43882;51.550;11.858;2024-01-07T05:37:04;16.25;;;4.53;;
58083;SDS011;43882;51.550;11.858;2024-01-07T05:39:30;15.05;;;4.13;;
58083;SDS011;43882;51.550;11.858;2024-01-07T05:41:56;16.08;;;4.38;;
58083;SDS011;43882;51.550;11.858;2024-01-07T05:44:22;14.65;;;4.13;;
58083;SDS011;43882;51.550;11.858;2024-01-07T05:46:48;14.10;;;3.67;;
58083;SDS011;43882;51.550;11.858;2024-01-07T05:49:14;14.52;;;3.80;;
58083;SDS011;43882;51.550;11.858;2024-01-07T05:51:40;13.70;;;3.40;;
58083;SDS011;43882;51.550;11.858;2024-01-07T05:54:06;12.88;;;3.15;;
58083;SDS011;43882;51.550;11.858;2024-01-07T05:56:37;15.20;;;4.30;;
58083;SDS011;43882;51.550;11.858;2024-01-07T05:59:05;13.85;;;3.30;;
58083;SDS011;43882;51.550;11.858;2024-01-07T06:01:31;12.40;;;3.85;;
58083;SDS011;43882;51.550;11.858;2024-01-07T06:03:57;12.40;;;3.28;;
58083;SDS011;43882;51.550;11.858;2024-01-07T06:06:23;11.27;;;3.25;;
58083;SDS011;43882;51.550;11.858;2024-01-07T06:08:49;13.73;;;3.75;;
58083;SDS011;43882;51.550;11.858;2024-01-07T06:11:15;12.50;;;3.40;;
58083;SDS011;43882;51.550;11.858;2024-01-07T06:13:45;12.80;;;3.60;;
58083;SDS011;43882;51.550;11.858;2024-01-07T06:16:11;13.88;;;3.88;;
58083;SDS011;43882;51.550;11.858;2024-01-07T06:18:37;13.07;;;3.45;;
58083;SDS011;43882;51.550;11.858;2024-01-07T06:21:04;12.05;;;3.30;;
58083;SDS011;43882;51.550;11.858;2024-01-07T06:23:32;13.55;;;3.33;;
58083;SDS011;43882;51.550;11.858;2024-01-07T06:25:58;12.20;;;3.35;;
58083;SDS011;43882;51.550;11.858;2024-01-07T06:28:24;12.85;;;3.75;;
58083;SDS011;43882;51.550;11.858;2024-01-07T06:30:50;12.70;;;3.53;;
58083;SDS011;43882;51.550;11.858;2024-01-07T06:33:16;13.00;;;3.13;;
58083;SDS011;43882;51.550;11.858;2024-01-07T06:35:43;14.43;;;3.72;;
58083;SDS011;43882;51.550;11.858;2024-01-07T06:38:10;11.15;;;3.28;;
58083;SDS011;43882;51.550;11.858;2024-01-07T06:40:36;12.15;;;3.20;;
58083;SDS011;43882;51.550;11.858;2024-01-07T06:43:02;13.65;;;3.40;;
58083;SDS011;43882;51.550;11.858;2024-01-07T06:45:28;13.43;;;3.13;;
58083;SDS011;43882;51.550;11.858;2024-01-07T06:47:54;10.40;;;2.85;;
58083;SDS011;43882;51.550;11.858;2024-01-07T06:50:20;10.98;;;3.20;;
58083;SDS011;43882;51.550;11.858;2024-01-07T06:52:46;14.85;;;3.70;;
58083;SDS011;43882;51.550;11.858;2024-01-07T06:55:12;13.05;;;3.25;;
58083;SDS011;43882;51.550;11.858;2024-01-07T06:57:38;13.32;;;3.63;;
58083;SDS011;43882;51.550;11.858;2024-01-07T07:00:05;12.57;;;3.47;;
58083;SDS011;43882;51.550;11.858;2024-01-07T07:02:31;14.45;;;3.88;;
58083;SDS011;43882;51.550;11.858;2024-01-07T07:04:57;14.00;;;3.35;;
58083;SDS011;43882;51.550;11.858;2024-01-07T07:07:23;12.85;;;3.90;;
58083;SDS011;43882;51.550;11.858;2024-01-07T07:09:49;14.13;;;3.75;;
58083;SDS011;43882;51.550;11.858;2024-01-07T07:12:17;15.10;;;3.85;;
58083;SDS011;43882;51.550;11.858;2024-01-07T07:14:43;14.77;;;3.95;;
58083;SDS011;43882;51.550;11.858;2024-01-07T07:17:09;13.68;;;4.03;;
58083;SDS011;43882;51.550;11.858;2024-01-07T07:19:35;13.15;;;3.58;;
58083;SDS011;43882;51.550;11.858;2024-01-07T07:22:01;15.27;;;4.10;;
58083;SDS011;43882;51.550;11.858;2024-01-07T07:24:28;15.40;;;4.35;;
58083;SDS011;43882;51.550;11.858;2024-01-07T07:26:54;13.65;;;4.45;;
58083;SDS011;43882;51.550;11.858;2024-01-07T07:29:20;14.90;;;4.28;;
58083;SDS011;43882;51.550;11.858;2024-01-07T07:31:46;14.75;;;4.15;;
58083;SDS011;43882;51.550;11.858;2024-01-07T07:34:13;18.33;;;4.32;;
58083;SDS011;43882;51.550;11.858;2024-01-07T07:36:39;15.40;;;4.40;;
58083;SDS011;43882;51.550;11.858;2024-01-07T07:39:06;15.30;;;4.80;;
58083;SDS011;43882;51.550;11.858;2024-01-07T07:41:34;15.38;;;4.22;;
58083;SDS011;43882;51.550;11.858;2024-01-07T07:44:00;16.13;;;4.70;;
58083;SDS011;43882;51.550;11.858;2024-01-07T07:46:26;15.55;;;4.20;;
58083;SDS011;43882;51.550;11.858;2024-01-07T07:48:52;15.00;;;4.13;;
58083;SDS011;43882;51.550;11.858;2024-01-07T07:51:18;13.30;;;4.28;;
58083;SDS011;43882;51.550;11.858;2024-01-07T07:53:45;14.98;;;4.40;;
58083;SDS011;43882;51.550;11.858;2024-01-07T07:56:11;16.38;;;4.50;;
58083;SDS011;43882;51.550;11.858;2024-01-07T07:58:37;15.65;;;4.40;;
58083;SDS011;43882;51.550;11.858;2024-01-07T08:01:04;15.35;;;4.43;;
58083;SDS011;43882;51.550;11.858;2024-01-07T08:03:31;13.52;;;3.72;;
58083;SDS011;43882;51.550;11.858;2024-01-07T08:05:57;12.85;;;3.60;;
58083;SDS011;43882;51.550;11.858;2024-01-07T08:08:23;13.88;;;4.03;;
58083;SDS011;43882;51.550;11.858;2024-01-07T08:10:49;13.32;;;3.88;;
58083;SDS011;43882;51.550;11.858;2024-01-07T08:13:15;13.68;;;3.35;;
58083;SDS011;43882;51.550;11.858;2024-01-07T08:15:42;13.73;;;3.78;;
58083;SDS011;43882;51.550;11.858;2024-01-07T08:18:08;14.95;;;3.78;;
58083;SDS011;43882;51.550;11.858;2024-01-07T08:20:34;11.65;;;3.28;;
58083;SDS011;43882;51.550;11.858;2024-01-07T08:23:00;13.43;;;3.72;;
58083;SDS011;43882;51.550;11.858;2024-01-07T08:25:26;12.30;;;3.60;;
58083;SDS011;43882;51.550;11.858;2024-01-07T08:27:53;13.02;;;3.42;;
58083;SDS011;43882;51.550;11.858;2024-01-07T08:30:19;14.93;;;4.18;;
58083;SDS011;43882;51.550;11.858;2024-01-07T08:32:45;12.18;;;3.20;;
58083;SDS011;43882;51.550;11.858;2024-01-07T08:35:11;12.27;;;3.40;;
58083;SDS011;43882;51.550;11.858;2024-01-07T08:37:37;12.68;;;3.30;;
58083;SDS011;43882;51.550;11.858;2024-01-07T08:40:03;14.02;;;3.97;;
58083;SDS011;43882;51.550;11.858;2024-01-07T08:42:29;15.02;;;3.92;;
58083;SDS011;43882;51.550;11.858;2024-01-07T08:44:56;12.02;;;3.45;;
58083;SDS011;43882;51.550;11.858;2024-01-07T08:47:23;14.25;;;3.63;;
58083;SDS011;43882;51.550;11.858;2024-01-07T08:49:49;13.65;;;3.78;;
58083;SDS011;43882;51.550;11.858;2024-01-07T08:52:18;12.40;;;3.53;;
58083;SDS011;43882;51.550;11.858;2024-01-07T08:54:44;14.95;;;3.80;;
58083;SDS011;43882;51.550;11.858;2024-01-07T08:57:10;11.93;;;3.50;;
58083;SDS011;43882;51.550;11.858;2024-01-07T08:59:36;12.75;;;3.55;;
58083;SDS011;43882;51.550;11.858;2024-01-07T09:02:02;12.18;;;3.58;;
58083;SDS011;43882;51.550;11.858;2024-01-07T09:04:28;13.50;;;3.72;;
58083;SDS011;43882;51.550;11.858;2024-01-07T09:06:55;14.55;;;3.95;;
58083;SDS011;43882;51.550;11.858;2024-01-07T09:09:21;11.32;;;3.10;;
58083;SDS011;43882;51.550;11.858;2024-01-07T09:11:47;13.88;;;4.07;;
58083;SDS011;43882;51.550;11.858;2024-01-07T09:14:13;12.40;;;3.53;;
58083;SDS011;43882;51.550;11.858;2024-01-07T09:16:39;14.65;;;3.78;;
58083;SDS011;43882;51.550;11.858;2024-01-07T09:19:05;13.57;;;3.42;;
58083;SDS011;43882;51.550;11.858;2024-01-07T09:21:31;13.57;;;3.83;;
58083;SDS011;43882;51.550;11.858;2024-01-07T09:23:58;11.38;;;2.90;;
58083;SDS011;43882;51.550;11.858;2024-01-07T09:26:24;12.55;;;3.63;;
58083;SDS011;43882;51.550;11.858;2024-01-07T09:28:50;12.15;;;3.60;;
58083;SDS011;43882;51.550;11.858;2024-01-07T09:31:17;13.20;;;3.40;;
58083;SDS011;43882;51.550;11.858;2024-01-07T09:33:43;15.40;;;3.80;;
58083;SDS011;43882;51.550;11.858;2024-01-07T09:36:09;11.48;;;3.25;;
58083;SDS011;43882;51.550;11.858;2024-01-07T09:38:35;10.55;;;2.97;;
58083;SDS011;43882;51.550;11.858;2024-01-07T09:41:01;11.82;;;3.28;;
58083;SDS011;43882;51.550;11.858;2024-01-07T09:43:28;11.85;;;3.08;;
58083;SDS011;43882;51.550;11.858;2024-01-07T09:45:54;11.07;;;2.90;;
58083;SDS011;43882;51.550;11.858;2024-01-07T09:48:22;11.82;;;3.30;;
58083;SDS011;43882;51.550;11.858;2024-01-07T09:50:48;11.35;;;2.97;;
58083;SDS011;43882;51.550;11.858;2024-01-07T09:53:15;12.43;;;3.03;;
58083;SDS011;43882;51.550;11.858;2024-01-07T09:56:01;12.25;;;3.00;;
58083;SDS011;43882;51.550;11.858;2024-01-07T09:58:45;10.75;;;3.13;;
58083;SDS011;43882;51.550;11.858;2024-01-07T10:01:15;10.65;;;2.70;;
58083;SDS011;43882;51.550;11.858;2024-01-07T10:03:42;11.60;;;2.90;;
58083;SDS011;43882;51.550;11.858;2024-01-07T10:06:08;8.95;;;2.70;;
58083;SDS011;43882;51.550;11.858;2024-01-07T10:08:36;11.32;;;2.90;;
58083;SDS011;43882;51.550;11.858;2024-01-07T10:11:03;9.50;;;2.80;;
58083;SDS011;43882;51.550;11.858;2024-01-07T10:13:29;9.95;;;3.13;;
58083;SDS011;43882;51.550;11.858;2024-01-07T10:15:56;9.77;;;3.03;;
58083;SDS011;43882;51.550;11.858;2024-01-07T10:18:22;10.77;;;2.97;;
58083;SDS011;43882;51.550;11.858;2024-01-07T10:20:48;9.93;;;2.80;;
58083;SDS011;43882;51.550;11.858;2024-01-07T10:23:20;12.02;;;2.85;;
58083;SDS011;43882;51.550;11.858;2024-01-07T10:25:46;10.25;;;2.67;;
58083;SDS011;43882;51.550;11.858;2024-01-07T10:28:12;8.23;;;2.90;;
58083;SDS011;43882;51.550;11.858;2024-01-07T10:30:39;13.13;;;2.83;;
58083;SDS011;43882;51.550;11.858;2024-01-07T10:33:05;11.23;;;2.90;;
58083;SDS011;43882;51.550;11.858;2024-01-07T10:35:33;11.57;;;3.03;;
58083;SDS011;43882;51.550;11.858;2024-01-07T10:38:00;10.45;;;2.72;;
58083;SDS011;43882;51.550;11.858;2024-01-07T10:40:27;8.65;;;2.65;;
58083;SDS011;43882;51.550;11.858;2024-01-07T10:42:54;10.02;;;3.80;;
58083;SDS011;43882;51.550;11.858;2024-01-07T10:45:21;9.77;;;3.08;;
58083;SDS011;43882;51.550;11.858;2024-01-07T10:47:48;11.13;;;2.60;;
58083;SDS011;43882;51.550;11.858;2024-01-07T10:50:16;10.93;;;2.75;;
58083;SDS011;43882;51.550;11.858;2024-01-07T10:52:42;9.30;;;2.67;;
58083;SDS011;43882;51.550;11.858;2024-01-07T10:55:13;8.98;;;2.67;;
58083;SDS011;43882;51.550;11.858;2024-01-07T10:57:44;11.30;;;2.80;;
58083;SDS011;43882;51.550;11.858;2024-01-07T11:00:15;7.03;;;2.40;;
58083;SDS011;43882;51.550;11.858;2024-01-07T11:05:43;9.48;;;2.60;;
58083;SDS011;43882;51.550;11.858;2024-01-07T11:13:39;7.13;;;2.40;;
58083;SDS011;43882;51.550;11.858;2024-01-07T11:18:54;10.07;;;2.63;;
58083;SDS011;43882;51.550;11.858;2024-01-07T11:21:23;11.30;;;2.70;;
58083;SDS011;43882;51.550;11.858;2024-01-07T11:23:51;9.60;;;2.85;;
58083;SDS011;43882;51.550;11.858;2024-01-07T11:26:18;10.55;;;2.88;;
58083;SDS011;43882;51.550;11.858;2024-01-07T11:31:21;11.05;;;2.95;;
58083;SDS011;43882;51.550;11.858;2024-01-07T11:37:12;12.45;;;2.80;;
58083;SDS011;43882;51.550;11.858;2024-01-07T11:39:39;9.55;;;2.60;;
58083;SDS011;43882;51.550;11.858;2024-01-07T11:42:10;10.30;;;2.45;;
58083;SDS011;43882;51.550;11.858;2024-01-07T11:44:37;9.55;;;2.65;;
58083;SDS011;43882;51.550;11.858;2024-01-07T11:47:14;10.55;;;2.63;;
58083;SDS011;43882;51.550;11.858;2024-01-07T11:49:43;8.65;;;2.80;;
58083;SDS011;43882;51.550;11.858;2024-01-07T11:52:10;9.73;;;2.80;;
58083;SDS011;43882;51.550;11.858;2024-01-07T11:54:37;9.48;;;2.60;;
58083;SDS011;43882;51.550;11.858;2024-01-07T11:57:03;10.75;;;2.90;;
58083;SDS011;43882;51.550;11.858;2024-01-07T11:59:30;9.88;;;2.67;;
58083;SDS011;43882;51.550;11.858;2024-01-07T12:01:56;10.13;;;2.90;;
58083;SDS011;43882;51.550;11.858;2024-01-07T12:04:23;9.70;;;2.65;;
58083;SDS011;43882;51.550;11.858;2024-01-07T12:06:49;8.52;;;2.55;;
58083;SDS011;43882;51.550;11.858;2024-01-07T12:09:16;10.95;;;2.65;;
58083;SDS011;43882;51.550;11.858;2024-01-07T12:11:42;12.10;;;2.50;;
58083;SDS011;43882;51.550;11.858;2024-01-07T12:14:09;10.13;;;2.65;;
58083;SDS011;43882;51.550;11.858;2024-01-07T12:16:35;7.20;;;2.42;;
58083;SDS011;43882;51.550;11.858;2024-01-07T12:19:02;11.05;;;2.67;;
58083;SDS011;43882;51.550;11.858;2024-01-07T12:21:28;9.48;;;2.80;;
58083;SDS011;43882;51.550;11.858;2024-01-07T12:23:55;9.27;;;2.58;;
58083;SDS011;43882;51.550;11.858;2024-01-07T12:26:25;11.95;;;3.13;;
58083;SDS011;43882;51.550;11.858;2024-01-07T12:28:52;11.27;;;2.90;;
58083;SDS011;43882;51.550;11.858;2024-01-07T12:31:25;9.48;;;2.45;;
58083;SDS011;43882;51.550;11.858;2024-01-07T12:33:51;7.78;;;2.40;;
58083;SDS011;43882;51.550;11.858;2024-01-07T12:36:21;9.85;;;2.85;;
58083;SDS011;43882;51.550;11.858;2024-01-07T12:38:47;7.65;;;2.40;;
58083;SDS011;43882;51.550;11.858;2024-01-07T12:41:14;8.90;;;2.58;;
58083;SDS011;43882;51.550;11.858;2024-01-07T12:43:40;12.30;;;3.22;;
58083;SDS011;43882;51.550;11.858;2024-01-07T12:46:06;7.60;;;2.50;;
58083;SDS011;43882;51.550;11.858;2024-01-07T12:48:32;9.80;;;2.80;;
58083;SDS011;43882;51.550;11.858;2024-01-07T12:50:59;12.50;;;3.00;;
58083;SDS011;43882;51.550;11.858;2024-01-07T12:53:25;12.18;;;3.22;;
58083;SDS011;43882;51.550;11.858;2024-01-07T12:55:52;12.02;;;3.20;;
58083;SDS011;43882;51.550;11.858;2024-01-07T12:58:19;9.02;;;2.70;;
58083;SDS011;43882;51.550;11.858;2024-01-07T13:00:45;9.30;;;2.85;;
58083;SDS011;43882;51.550;11.858;2024-01-07T13:03:12;11.05;;;2.70;;
58083;SDS011;43882;51.550;11.858;2024-01-07T13:05:44;10.98;;;3.10;;
58083;SDS011;43882;51.550;11.858;2024-01-07T13:08:17;15.32;;;4.07;;
58083;SDS011;43882;51.550;11.858;2024-01-07T13:10:52;15.57;;;4.57;;
58083;SDS011;43882;51.550;11.858;2024-01-07T13:13:18;13.68;;;4.05;;
58083;SDS011;43882;51.550;11.858;2024-01-07T13:15:45;12.35;;;3.58;;
58083;SDS011;43882;51.550;11.858;2024-01-07T13:18:11;13.13;;;3.53;;
58083;SDS011;43882;51.550;11.858;2024-01-07T13:20:37;12.52;;;3.53;;
58083;SDS011;43882;51.550;11.858;2024-01-07T13:23:06;12.05;;;3.75;;
58083;SDS011;43882;51.550;11.858;2024-01-07T13:25:32;14.35;;;3.50;;
58083;SDS011;43882;51.550;11.858;2024-01-07T13:27:58;14.20;;;3.88;;
58083;SDS011;43882;51.550;11.858;2024-01-07T13:30:25;14.30;;;4.03;;
58083;SDS011;43882;51.550;11.858;2024-01-07T13:32:51;13.82;;;3.65;;
58083;SDS011;43882;51.550;11.858;2024-01-07T13:35:21;14.52;;;4.00;;
58083;SDS011;43882;51.550;11.858;2024-01-07T13:37:47;14.77;;;4.38;;
58083;SDS011;43882;51.550;11.858;2024-01-07T13:40:13;15.27;;;3.92;;
58083;SDS011;43882;51.550;11.858;2024-01-07T13:42:40;15.15;;;4.78;;
58083;SDS011;43882;51.550;11.858;2024-01-07T13:45:06;14.98;;;4.05;;
58083;SDS011;43882;51.550;11.858;2024-01-07T13:47:32;16.02;;;4.55;;
58083;SDS011;43882;51.550;11.858;2024-01-07T13:50:00;16.38;;;4.60;;
58083;SDS011;43882;51.550;11.858;2024-01-07T13:52:27;16.13;;;4.45;;
58083;SDS011;43882;51.550;11.858;2024-01-07T13:54:54;15.50;;;4.88;;
58083;SDS011;43882;51.550;11.858;2024-01-07T13:57:20;16.33;;;5.38;;
58083;SDS011;43882;51.550;11.858;2024-01-07T13:59:46;16.70;;;4.78;;
58083;SDS011;43882;51.550;11.858;2024-01-07T14:02:13;15.55;;;4.60;;
58083;SDS011;43882;51.550;11.858;2024-01-07T14:04:39;70.72;;;61.55;;
58083;SDS011;43882;51.550;11.858;2024-01-07T14:07:05;21.83;;;11.77;;
58083;SDS011;43882;51.550;11.858;2024-01-07T14:09:31;28.73;;;12.88;;
58083;SDS011;43882;51.550;11.858;2024-01-07T14:11:57;68.05;;;47.45;;
58083;SDS011;43882;51.550;11.858;2024-01-07T14:14:23;77.85;;;55.70;;
58083;SDS011;43882;51.550;11.858;2024-01-07T14:16:49;40.50;;;28.08;;
58083;SDS011;43882;51.550;11.858;2024-01-07T14:19:15;192.95;;;120.15;;
58083;SDS011;43882;51.550;11.858;2024-01-07T14:21:42;123.25;;;79.40;;
58083;SDS011;43882;51.550;11.858;2024-01-07T14:24:08;32.50;;;16.45;;
58083;SDS011;43882;51.550;11.858;2024-01-07T14:26:34;175.05;;;113.28;;
58083;SDS011;43882;51.550;11.858;2024-01-07T14:29:00;174.77;;;129.90;;
58083;SDS011;43882;51.550;11.858;2024-01-07T14:31:26;214.70;;;150.73;;